createdAt,value
2023-03-15T00:01:18.795Z,6.05
2023-03-15T00:03:45.167Z,7.60
2023-03-15T00:06:11.506Z,7.37
2023-03-15T00:08:37.866Z,7.25
2023-03-15T00:11:04.188Z,9.48
2023-03-15T00:13:30.765Z,6.78
2023-03-15T00:15:57.115Z,5.95
2023-03-15T00:18:23.446Z,8.70
2023-03-15T00:20:49.823Z,7.62
2023-03-15T00:23:16.132Z,5.07
2023-03-15T00:25:42.485Z,12.90
2023-03-15T00:28:08.813Z,8.30
2023-03-15T00:30:35.132Z,8.18
2023-03-15T00:33:01.434Z,4.97
2023-03-15T00:35:27.774Z,7.70
2023-03-15T00:37:54.737Z,8.88
2023-03-15T00:40:21.103Z,8.88
2023-03-15T00:42:50.504Z,7.62
2023-03-15T00:45:16.810Z,6.50
2023-03-15T00:47:43.122Z,5.68
2023-03-15T00:50:09.445Z,13.18
2023-03-15T00:52:36.095Z,7.78
2023-03-15T00:55:02.428Z,7.55
2023-03-15T00:57:29.041Z,6.20
2023-03-15T00:59:55.434Z,11.15
2023-03-15T01:02:24.923Z,5.90
2023-03-15T01:04:51.459Z,7.62
2023-03-15T01:07:17.811Z,6.30
2023-03-15T01:09:46.341Z,6.90
2023-03-15T01:12:14.331Z,4.57
2023-03-15T01:14:40.701Z,7.82
2023-03-15T01:17:07.037Z,7.15
2023-03-15T01:19:33.338Z,6.32
2023-03-15T01:21:59.662Z,7.50
2023-03-15T01:24:26.030Z,3.10
2023-03-15T01:26:52.381Z,7.00
2023-03-15T01:29:18.756Z,6.50
2023-03-15T01:31:45.129Z,4.75
2023-03-15T01:34:11.524Z,6.25
2023-03-15T01:36:37.862Z,6.53
2023-03-15T01:39:04.190Z,6.65
2023-03-15T01:41:30.517Z,5.65
2023-03-15T01:43:56.903Z,10.32
2023-03-15T01:46:23.855Z,5.72
2023-03-15T01:48:50.829Z,9.40
2023-03-15T01:51:17.340Z,6.78
2023-03-15T01:53:43.734Z,6.22
2023-03-15T01:56:10.113Z,7.72
2023-03-15T01:58:36.983Z,9.43
2023-03-15T02:01:03.380Z,6.05
2023-03-15T02:03:29.786Z,7.53
2023-03-15T02:05:56.133Z,5.93
2023-03-15T02:08:22.475Z,4.93
2023-03-15T02:10:48.808Z,5.12
2023-03-15T02:13:15.128Z,7.45
2023-03-15T02:15:46.822Z,10.43
2023-03-15T02:18:13.333Z,6.93
2023-03-15T02:20:39.719Z,10.20
2023-03-15T02:23:06.029Z,6.95
2023-03-15T02:25:32.342Z,5.53
2023-03-15T02:27:58.651Z,4.75
2023-03-15T02:30:24.958Z,9.65
2023-03-15T02:32:51.315Z,7.12
2023-03-15T02:35:17.640Z,6.30
2023-03-15T02:37:46.052Z,6.80
2023-03-15T02:40:12.373Z,11.52
2023-03-15T02:42:38.686Z,5.75
2023-03-15T02:45:05.008Z,4.90
2023-03-15T02:47:31.345Z,7.95
2023-03-15T02:49:57.667Z,8.07
2023-03-15T02:52:23.973Z,5.07
2023-03-15T02:54:50.290Z,8.60
2023-03-15T02:57:16.619Z,6.80
2023-03-15T02:59:43.031Z,6.47
2023-03-15T03:02:11.790Z,7.37
2023-03-15T03:04:38.170Z,6.93
2023-03-15T03:07:04.479Z,10.80
2023-03-15T03:09:30.798Z,8.93
2023-03-15T03:11:57.136Z,9.55
2023-03-15T03:14:26.539Z,7.10
2023-03-15T03:16:52.896Z,8.48
2023-03-15T03:19:19.266Z,8.30
2023-03-15T03:21:45.584Z,7.30
2023-03-15T03:24:11.911Z,13.77
2023-03-15T03:26:38.303Z,5.57
2023-03-15T03:29:05.778Z,7.45
2023-03-15T03:31:35.264Z,7.65
2023-03-15T03:34:01.668Z,8.80
2023-03-15T03:36:27.970Z,6.70
2023-03-15T03:38:54.297Z,5.47
2023-03-15T03:41:21.413Z,7.65
2023-03-15T03:43:47.771Z,5.50
2023-03-15T03:46:14.107Z,6.12
2023-03-15T03:48:40.550Z,8.13
2023-03-15T03:51:06.869Z,5.18
2023-03-15T03:53:33.196Z,7.20
2023-03-15T03:55:59.520Z,6.20
2023-03-15T03:58:25.858Z,4.50
2023-03-15T04:00:54.354Z,10.10
2023-03-15T04:03:27.444Z,7.07
2023-03-15T04:05:53.801Z,9.25
2023-03-15T04:08:20.152Z,6.75
2023-03-15T04:10:46.475Z,6.12
2023-03-15T04:13:12.874Z,7.82
2023-03-15T04:15:39.269Z,6.22
2023-03-15T04:18:05.924Z,3.67
2023-03-15T04:20:34.706Z,5.07
2023-03-15T04:23:01.040Z,7.93
2023-03-15T04:25:27.363Z,8.02
2023-03-15T04:27:59.817Z,5.45
2023-03-15T04:30:27.239Z,6.43
2023-03-15T04:32:59.660Z,12.98
2023-03-15T04:35:26.021Z,10.52
2023-03-15T04:37:52.336Z,8.98
2023-03-15T04:40:18.690Z,15.02
2023-03-15T04:42:45.010Z,5.65
2023-03-15T04:45:11.320Z,6.97
2023-03-15T04:47:37.636Z,7.65
2023-03-15T04:50:03.944Z,5.03
2023-03-15T04:52:30.265Z,4.90
2023-03-15T04:54:56.592Z,5.07
2023-03-15T04:57:22.941Z,5.82
2023-03-15T04:59:49.269Z,10.57
2023-03-15T05:02:15.596Z,5.60
2023-03-15T05:04:41.965Z,6.95
2023-03-15T05:07:08.271Z,5.57
2023-03-15T05:09:39.788Z,4.75
2023-03-15T05:12:06.295Z,10.93
2023-03-15T05:14:32.603Z,5.25
2023-03-15T05:16:59.797Z,7.82
2023-03-15T05:19:26.221Z,10.00
2023-03-15T05:21:54.747Z,6.68
2023-03-15T05:24:21.061Z,11.73
2023-03-15T05:26:47.532Z,5.47
2023-03-15T05:29:13.853Z,6.12
2023-03-15T05:31:40.170Z,9.52
2023-03-15T05:34:06.502Z,8.00
2023-03-15T05:36:32.834Z,8.13
2023-03-15T05:38:59.180Z,4.60
2023-03-15T05:41:25.475Z,6.25
2023-03-15T05:43:51.838Z,7.78
2023-03-15T05:46:18.215Z,8.40
2023-03-15T05:48:44.561Z,7.55
2023-03-15T05:51:10.867Z,7.82
2023-03-15T05:53:37.242Z,11.25
2023-03-15T05:56:03.558Z,3.95
2023-03-15T05:58:29.892Z,7.37
2023-03-15T06:00:56.231Z,5.32
2023-03-15T06:03:22.633Z,5.72
2023-03-15T06:05:49.029Z,4.75
2023-03-15T06:08:15.426Z,4.45
2023-03-15T06:10:41.778Z,10.88
2023-03-15T06:13:08.183Z,7.32
2023-03-15T06:15:34.522Z,6.60
2023-03-15T06:18:00.878Z,9.45
2023-03-15T06:20:27.203Z,5.87
2023-03-15T06:22:53.594Z,7.40
2023-03-15T06:25:19.945Z,8.68
2023-03-15T06:27:46.257Z,5.87
2023-03-15T06:30:12.877Z,7.97
2023-03-15T06:32:39.901Z,9.77
2023-03-15T06:35:06.442Z,8.50
2023-03-15T06:37:35.265Z,6.40
2023-03-15T06:40:01.969Z,6.43
2023-03-15T06:42:28.317Z,6.15
2023-03-15T06:44:54.637Z,7.07
2023-03-15T06:47:20.983Z,10.15
2023-03-15T06:49:50.455Z,6.40
2023-03-15T06:52:16.822Z,9.48
2023-03-15T06:54:43.162Z,8.32
2023-03-15T06:57:09.473Z,8.00
2023-03-15T06:59:35.800Z,4.72
2023-03-15T07:02:02.103Z,5.12
2023-03-15T07:04:28.461Z,8.38
2023-03-15T07:06:55.441Z,5.47
2023-03-15T07:09:21.796Z,8.60
2023-03-15T07:11:48.134Z,7.70
2023-03-15T07:14:14.452Z,6.53
2023-03-15T07:16:40.825Z,10.52
2023-03-15T07:19:07.223Z,9.18
2023-03-15T07:21:33.540Z,11.27
2023-03-15T07:23:59.862Z,8.32
2023-03-15T07:26:26.217Z,6.57
2023-03-15T07:28:52.524Z,6.60
2023-03-15T07:31:18.900Z,4.68
2023-03-15T07:33:45.280Z,6.57
2023-03-15T07:36:11.672Z,8.52
2023-03-15T07:38:38.019Z,6.68
2023-03-15T07:41:04.379Z,7.78
2023-03-15T07:43:30.681Z,7.57
2023-03-15T07:45:57.018Z,10.68
2023-03-15T07:48:23.343Z,7.18
2023-03-15T07:50:49.757Z,6.05
2023-03-15T07:53:16.158Z,9.02
2023-03-15T07:55:42.474Z,7.93
2023-03-15T07:58:08.793Z,6.95
2023-03-15T08:00:35.102Z,7.50
2023-03-15T08:03:01.425Z,7.68
2023-03-15T08:05:29.173Z,7.53
2023-03-15T08:07:56.736Z,8.18
2023-03-15T08:10:23.208Z,7.35
2023-03-15T08:12:49.538Z,5.87
2023-03-15T08:15:15.895Z,6.35
2023-03-15T08:17:42.246Z,5.25
2023-03-15T08:20:11.711Z,9.38
2023-03-15T08:22:38.555Z,4.12
2023-03-15T08:25:04.907Z,9.10
2023-03-15T08:27:31.234Z,8.48
2023-03-15T08:29:57.546Z,8.88
2023-03-15T08:32:23.891Z,17.05
2023-03-15T08:34:50.223Z,4.85
2023-03-15T08:37:16.541Z,7.28
2023-03-15T08:39:43.831Z,4.85
2023-03-15T08:42:10.625Z,5.25
2023-03-15T08:44:36.973Z,4.32
2023-03-15T08:47:03.305Z,4.80
2023-03-15T08:49:29.611Z,5.22
2023-03-15T08:51:55.920Z,3.85
2023-03-15T08:54:23.586Z,6.00
2023-03-15T08:56:49.921Z,4.22
2023-03-15T08:59:29.084Z,5.97
2023-03-15T09:01:57.258Z,7.00
2023-03-15T09:04:24.130Z,8.48
2023-03-15T09:06:50.483Z,5.12
2023-03-15T09:09:17.596Z,7.57
2023-03-15T09:11:43.922Z,6.47
2023-03-15T09:14:10.239Z,8.13
2023-03-15T09:16:36.670Z,6.03
2023-03-15T09:19:03.101Z,5.62
2023-03-15T09:21:29.469Z,9.98
2023-03-15T09:23:55.809Z,5.20
2023-03-15T09:26:22.153Z,7.87
2023-03-15T09:28:48.460Z,5.55
2023-03-15T09:31:14.810Z,7.15
2023-03-15T09:33:41.181Z,6.57
2023-03-15T09:36:07.601Z,8.93
2023-03-15T09:38:33.922Z,5.10
2023-03-15T09:41:00.357Z,6.70
2023-03-15T09:43:26.670Z,9.23
2023-03-15T09:45:53.093Z,5.80
2023-03-15T09:48:19.450Z,8.60
2023-03-15T09:50:45.808Z,8.75
2023-03-15T09:53:12.158Z,5.15
2023-03-15T09:55:38.481Z,8.88
2023-03-15T09:58:04.807Z,5.53
2023-03-15T10:00:31.135Z,8.68
2023-03-15T10:02:59.276Z,9.18
2023-03-15T10:05:25.627Z,8.15
2023-03-15T10:07:52.450Z,10.30
2023-03-15T10:10:18.874Z,9.90
2023-03-15T10:12:45.212Z,8.02
2023-03-15T10:15:11.630Z,4.05
2023-03-15T10:17:38.027Z,8.27
2023-03-15T10:20:06.127Z,6.47
2023-03-15T10:22:32.488Z,5.50
2023-03-15T10:24:58.872Z,3.95
2023-03-15T10:27:25.189Z,5.53
2023-03-15T10:29:51.810Z,7.62
2023-03-15T10:32:18.347Z,7.35
2023-03-15T10:34:45.584Z,6.35
2023-03-15T10:37:13.241Z,4.90
2023-03-15T10:39:39.612Z,4.78
2023-03-15T10:42:05.945Z,7.12
2023-03-15T10:44:32.286Z,6.82
2023-03-15T10:46:58.801Z,7.53
2023-03-15T10:49:25.158Z,5.28
2023-03-15T10:51:51.467Z,3.75
2023-03-15T10:54:17.884Z,7.22
2023-03-15T10:56:44.264Z,4.03
2023-03-15T10:59:12.985Z,4.93
2023-03-15T11:01:39.556Z,3.87
2023-03-15T11:04:05.954Z,6.85
2023-03-15T11:06:32.399Z,6.20
2023-03-15T11:08:58.722Z,7.32
2023-03-15T11:11:25.125Z,8.45
2023-03-15T11:13:51.442Z,4.72
2023-03-15T11:16:17.791Z,7.68
2023-03-15T11:18:44.212Z,7.70
2023-03-15T11:21:10.576Z,6.97
2023-03-15T11:23:36.948Z,7.72
2023-03-15T11:26:03.663Z,6.55
2023-03-15T11:28:29.995Z,5.72
2023-03-15T11:30:56.374Z,7.57
2023-03-15T11:33:22.730Z,4.62
2023-03-15T11:35:49.998Z,6.45
2023-03-15T11:38:16.755Z,6.10
2023-03-15T11:40:43.224Z,8.45
2023-03-15T11:43:09.594Z,4.72
2023-03-15T11:45:36.270Z,4.30
2023-03-15T11:48:02.582Z,7.25
2023-03-15T11:50:29.194Z,6.85
2023-03-15T11:52:55.497Z,8.65
2023-03-15T11:55:22.169Z,3.83
2023-03-15T11:57:48.545Z,7.57
2023-03-15T12:00:15.647Z,5.75
2023-03-15T12:02:42.086Z,8.65
2023-03-15T12:05:18.064Z,5.15
2023-03-15T12:07:44.695Z,6.05
2023-03-15T12:10:11.022Z,4.72
2023-03-15T12:12:37.712Z,6.75
2023-03-15T12:15:05.427Z,5.12
2023-03-15T12:17:31.793Z,6.43
2023-03-15T12:19:58.128Z,5.15
2023-03-15T12:22:24.476Z,4.32
2023-03-15T12:24:50.788Z,3.87
2023-03-15T12:27:17.165Z,4.75
2023-03-15T12:29:44.650Z,4.85
2023-03-15T12:32:12.039Z,4.18
2023-03-15T12:34:38.408Z,4.25
2023-03-15T12:37:04.751Z,4.60
2023-03-15T12:39:31.898Z,3.70
2023-03-15T12:41:58.224Z,5.20
2023-03-15T12:44:24.555Z,4.18
2023-03-15T12:46:50.914Z,3.78
2023-03-15T12:49:17.254Z,6.68
2023-03-15T12:51:43.578Z,4.78
2023-03-15T12:54:10.031Z,2.80
2023-03-15T12:56:36.400Z,6.72
2023-03-15T12:59:05.034Z,6.43
2023-03-15T13:01:31.351Z,4.35
2023-03-15T13:03:58.275Z,6.53
2023-03-15T13:06:24.669Z,3.42
2023-03-15T13:08:51.010Z,3.85
2023-03-15T13:11:17.368Z,6.30
2023-03-15T13:13:45.065Z,3.40
2023-03-15T13:16:15.582Z,4.93
2023-03-15T13:18:41.996Z,5.57
2023-03-15T13:21:08.390Z,4.03
2023-03-15T13:23:34.722Z,4.65
2023-03-15T13:26:02.906Z,3.95
2023-03-15T13:28:29.298Z,7.25
2023-03-15T13:30:55.645Z,5.78
2023-03-15T13:33:22.105Z,2.95
2023-03-15T13:35:48.512Z,5.25
2023-03-15T13:38:14.861Z,4.25
2023-03-15T13:40:41.164Z,4.53
2023-03-15T13:43:07.483Z,3.08
2023-03-15T13:45:33.913Z,4.18
2023-03-15T13:48:00.243Z,2.58
2023-03-15T13:50:26.581Z,4.65
2023-03-15T13:52:52.970Z,7.15
2023-03-15T13:55:19.308Z,4.60
2023-03-15T13:57:45.612Z,4.32
2023-03-15T14:00:12.193Z,4.37
2023-03-15T14:02:38.615Z,2.55
2023-03-15T14:05:05.416Z,3.87
2023-03-15T14:07:31.879Z,4.47
2023-03-15T14:09:58.248Z,4.07
2023-03-15T14:12:24.583Z,3.00
2023-03-15T14:14:51.452Z,4.47
2023-03-15T14:17:18.451Z,4.07
2023-03-15T14:19:44.804Z,4.87
2023-03-15T14:22:11.181Z,4.68
2023-03-15T14:24:37.668Z,3.20
2023-03-15T14:27:04.086Z,2.92
2023-03-15T14:29:30.745Z,4.03
2023-03-15T14:31:57.078Z,4.07
2023-03-15T14:34:23.942Z,2.20
2023-03-15T14:36:51.474Z,2.20
2023-03-15T14:39:17.966Z,3.33
2023-03-15T14:41:44.296Z,5.53
2023-03-15T14:44:10.661Z,5.85
2023-03-15T14:46:36.958Z,3.20
2023-03-15T14:49:03.318Z,3.87
2023-03-15T14:51:29.726Z,4.75
2023-03-15T14:53:56.385Z,3.45
2023-03-15T14:56:22.737Z,3.17
2023-03-15T14:58:49.626Z,3.85
2023-03-15T15:01:16.011Z,1.90
2023-03-15T15:03:42.358Z,2.45
2023-03-15T15:06:08.690Z,1.75
2023-03-15T15:08:38.503Z,2.67
2023-03-15T15:11:05.028Z,2.67
2023-03-15T15:13:31.765Z,3.65
2023-03-15T15:15:58.164Z,2.03
2023-03-15T15:18:24.558Z,1.90
2023-03-15T15:20:54.355Z,3.20
2023-03-15T15:23:20.728Z,2.45
2023-03-15T15:25:48.154Z,3.70
2023-03-15T15:28:23.924Z,1.23
2023-03-15T15:30:59.368Z,3.22
2023-03-15T15:33:25.675Z,1.85
2023-03-15T15:35:53.210Z,1.55
2023-03-15T15:38:19.614Z,2.10
2023-03-15T15:40:45.924Z,1.42
2023-03-15T15:43:12.272Z,3.37
2023-03-15T15:45:38.620Z,1.70
2023-03-15T15:48:06.319Z,2.10
2023-03-15T15:50:32.625Z,2.30
2023-03-15T15:52:59.236Z,1.48
2023-03-15T15:55:25.583Z,2.72
2023-03-15T15:57:51.901Z,1.80
2023-03-15T16:00:19.090Z,4.53
2023-03-15T16:02:45.512Z,3.05
2023-03-15T16:05:12.062Z,2.90
2023-03-15T16:07:38.453Z,2.80
2023-03-15T16:10:04.792Z,3.15
2023-03-15T16:12:32.834Z,2.45
2023-03-15T16:14:59.154Z,5.68
2023-03-15T16:17:25.511Z,4.62
2023-03-15T16:19:51.852Z,3.58
2023-03-15T16:22:18.190Z,4.90
2023-03-15T16:24:45.551Z,3.90
2023-03-15T16:27:12.051Z,4.68
2023-03-15T16:29:38.419Z,2.62
2023-03-15T16:32:16.408Z,3.35
2023-03-15T16:34:48.567Z,3.65
2023-03-15T16:37:15.104Z,2.30
2023-03-15T16:39:41.434Z,2.03
2023-03-15T16:42:07.732Z,4.72
2023-03-15T16:44:34.058Z,3.05
2023-03-15T16:47:00.498Z,3.60
2023-03-15T16:49:26.872Z,3.17
2023-03-15T16:51:53.232Z,3.28
2023-03-15T16:57:05.949Z,2.35
2023-03-15T16:59:32.292Z,2.12
2023-03-15T17:01:58.772Z,2.55
2023-03-15T17:04:25.261Z,2.75
2023-03-15T17:09:18.267Z,5.90
2023-03-15T17:11:44.652Z,3.80
2023-03-15T17:14:10.988Z,2.47
2023-03-15T17:16:37.318Z,3.42
2023-03-15T17:19:04.410Z,5.60
2023-03-15T17:21:31.322Z,2.92
2023-03-15T17:23:57.630Z,3.70
2023-03-15T17:26:24.512Z,3.37
2023-03-15T17:28:50.993Z,3.58
2023-03-15T17:31:24.847Z,2.60
2023-03-15T17:33:51.557Z,4.55
2023-03-15T17:36:18.084Z,3.72
2023-03-15T17:38:44.637Z,3.03
2023-03-15T17:41:10.962Z,3.62
2023-03-15T17:43:37.424Z,3.83
2023-03-15T17:46:03.783Z,4.15
2023-03-15T17:48:30.118Z,4.55
2023-03-15T17:50:56.439Z,3.35
2023-03-15T17:53:22.742Z,3.97
2023-03-15T17:55:49.279Z,3.00
2023-03-15T17:58:15.679Z,4.78
2023-03-15T18:00:43.582Z,4.12
2023-03-15T18:03:09.954Z,3.72
2023-03-15T18:05:36.295Z,4.25
2023-03-15T18:08:04.076Z,4.55
2023-03-15T18:10:30.442Z,5.90
2023-03-15T18:12:56.793Z,4.12
2023-03-15T18:15:24.050Z,3.10
2023-03-15T18:17:50.918Z,5.62
2023-03-15T18:20:17.235Z,5.60
2023-03-15T18:22:43.597Z,3.97
2023-03-15T18:25:09.913Z,3.55
2023-03-15T18:27:36.309Z,3.87
2023-03-15T18:30:03.146Z,6.05
2023-03-15T18:32:29.487Z,4.97
2023-03-15T18:34:55.895Z,5.68
2023-03-15T18:37:22.241Z,4.50
2023-03-15T18:39:48.572Z,4.28
2023-03-15T18:42:14.910Z,4.20
2023-03-15T18:44:41.298Z,3.75
2023-03-15T18:47:08.691Z,4.45
2023-03-15T18:49:35.710Z,6.97
2023-03-15T18:52:02.109Z,5.65
2023-03-15T18:54:28.409Z,6.80
2023-03-15T18:56:54.834Z,4.65
2023-03-15T18:59:21.222Z,4.07
2023-03-15T19:01:47.621Z,4.70
2023-03-15T19:04:13.937Z,5.25
2023-03-15T19:06:40.369Z,3.47
2023-03-15T19:09:06.730Z,5.15
2023-03-15T19:11:37.451Z,4.75
2023-03-15T19:14:03.776Z,2.78
2023-03-15T19:16:31.597Z,3.87
2023-03-15T19:18:58.159Z,4.32
2023-03-15T19:21:26.327Z,3.75
2023-03-15T19:23:58.153Z,2.80
2023-03-15T19:26:24.926Z,4.85
2023-03-15T19:28:51.261Z,4.53
2023-03-15T19:31:18.058Z,4.53
2023-03-15T19:33:44.418Z,4.75
2023-03-15T19:36:10.885Z,4.00
2023-03-15T19:38:37.644Z,4.03
2023-03-15T19:41:04.147Z,6.43
2023-03-15T19:43:30.672Z,5.10
2023-03-15T19:45:57.157Z,3.53
2023-03-15T19:48:23.522Z,4.90
2023-03-15T19:50:50.003Z,5.12
2023-03-15T19:53:16.333Z,4.85
2023-03-15T19:55:42.667Z,7.18
2023-03-15T19:58:08.999Z,5.28
2023-03-15T20:00:35.418Z,7.70
2023-03-15T20:03:01.739Z,6.50
2023-03-15T20:05:28.120Z,5.53
2023-03-15T20:07:54.467Z,5.43
2023-03-15T20:10:21.074Z,7.75
2023-03-15T20:12:48.106Z,5.37
2023-03-15T20:15:14.426Z,5.28
2023-03-15T20:17:41.085Z,5.40
2023-03-15T20:20:11.465Z,5.20
2023-03-15T20:22:40.535Z,5.78
2023-03-15T20:25:07.473Z,7.68
2023-03-15T20:27:33.858Z,4.05
2023-03-15T20:30:00.262Z,5.62
2023-03-15T20:32:26.620Z,6.72
2023-03-15T20:34:57.448Z,5.30
2023-03-15T20:37:23.850Z,7.45
2023-03-15T20:39:50.197Z,9.65
2023-03-15T20:42:16.537Z,6.28
2023-03-15T20:44:42.935Z,10.25
2023-03-15T20:47:09.358Z,8.85
2023-03-15T20:49:35.816Z,6.28
2023-03-15T20:52:02.249Z,6.72
2023-03-15T20:54:28.783Z,5.37
2023-03-15T20:56:55.221Z,9.02
2023-03-15T20:59:22.574Z,6.90
2023-03-15T21:01:49.230Z,7.12
2023-03-15T21:04:16.309Z,6.45
2023-03-15T21:06:42.707Z,8.43
2023-03-15T21:09:09.111Z,7.82
2023-03-15T21:11:35.523Z,8.07
2023-03-15T21:14:01.878Z,9.10
2023-03-15T21:16:28.224Z,7.03
2023-03-15T21:18:55.201Z,7.22
2023-03-15T21:21:21.604Z,8.15
2023-03-15T21:23:48.070Z,8.85
2023-03-15T21:26:14.460Z,8.15
2023-03-15T21:28:40.805Z,6.85
2023-03-15T21:31:07.191Z,7.10
2023-03-15T21:33:33.536Z,10.38
2023-03-15T21:35:59.961Z,8.30
2023-03-15T21:38:26.366Z,7.12
2023-03-15T21:40:57.981Z,6.40
2023-03-15T21:43:24.388Z,6.25
2023-03-15T21:45:51.007Z,7.57
2023-03-15T21:48:18.524Z,9.55
2023-03-15T21:50:44.876Z,8.48
2023-03-15T21:53:11.177Z,9.27
2023-03-15T21:55:37.500Z,8.98
2023-03-15T21:58:04.772Z,9.45
2023-03-15T22:00:31.102Z,8.65
2023-03-15T22:02:57.454Z,9.18
2023-03-15T22:05:23.820Z,9.20
2023-03-15T22:07:50.227Z,10.45
2023-03-15T22:10:16.691Z,11.05
2023-03-15T22:12:43.006Z,11.05
2023-03-15T22:15:09.337Z,10.75
2023-03-15T22:17:35.639Z,16.42
2023-03-15T22:20:02.314Z,11.63
2023-03-15T22:22:28.656Z,12.10
2023-03-15T22:24:54.964Z,12.82
2023-03-15T22:27:21.318Z,13.70
2023-03-15T22:29:47.638Z,10.07
2023-03-15T22:32:14.020Z,12.88
2023-03-15T22:34:40.514Z,13.77
2023-03-15T22:37:07.194Z,13.13
2023-03-15T22:39:34.214Z,14.90
2023-03-15T22:42:00.525Z,11.48
2023-03-15T22:44:28.914Z,10.75
2023-03-15T22:46:56.395Z,12.65
2023-03-15T22:49:23.816Z,11.63
2023-03-15T22:51:50.113Z,13.98
2023-03-15T22:54:16.483Z,10.93
2023-03-15T22:56:42.801Z,10.82
2023-03-15T22:59:09.153Z,11.05
2023-03-15T23:01:35.582Z,10.15
2023-03-15T23:04:02.028Z,11.80
2023-03-15T23:06:28.354Z,11.45
2023-03-15T23:08:54.674Z,8.98
2023-03-15T23:11:20.989Z,10.70
2023-03-15T23:13:48.886Z,10.45
2023-03-15T23:16:15.224Z,9.30
2023-03-15T23:18:41.905Z,10.52
2023-03-15T23:21:08.231Z,13.02
2023-03-15T23:23:34.639Z,11.48
2023-03-15T23:26:02.372Z,11.25
2023-03-15T23:28:28.751Z,10.77
2023-03-15T23:30:55.123Z,12.45
2023-03-15T23:33:21.509Z,12.80
2023-03-15T23:35:47.818Z,12.50
2023-03-15T23:38:14.138Z,10.52
2023-03-15T23:40:40.469Z,12.93
2023-03-15T23:43:09.377Z,14.10
2023-03-15T23:45:35.701Z,12.13
2023-03-15T23:48:02.723Z,12.00
2023-03-15T23:50:29.235Z,12.18
2023-03-15T23:52:55.692Z,17.10
2023-03-15T23:55:22.066Z,12.40
2023-03-15T23:57:48.565Z,12.73
